createdAt,value
2018-12-15T00:00:16.946Z,2.50
2018-12-15T00:02:50.831Z,2.60
2018-12-15T00:05:22.735Z,2.60
2018-12-15T00:07:56.060Z,2.60
2018-12-15T00:10:53.762Z,2.70
2018-12-15T00:13:46.687Z,2.70
2018-12-15T00:17:05.864Z,2.80
2018-12-15T00:19:49.038Z,2.80
2018-12-15T00:22:44.110Z,2.90
2018-12-15T00:25:15.070Z,2.80
2018-12-15T00:27:45.702Z,2.80
2018-12-15T00:30:15.506Z,2.80
2018-12-15T00:32:57.675Z,2.70
2018-12-15T00:35:45.275Z,2.80
2018-12-15T00:38:27.068Z,2.70
2018-12-15T00:41:08.818Z,2.60
2018-12-15T00:43:39.973Z,2.60
2018-12-15T00:46:16.495Z,2.60
2018-12-15T00:48:49.075Z,2.60
2018-12-15T00:51:44.522Z,2.50
2018-12-15T00:55:04.743Z,2.50
2018-12-15T00:57:35.332Z,2.50
2018-12-15T01:00:05.713Z,2.60
2018-12-15T01:02:36.111Z,2.50
2018-12-15T01:05:10.401Z,2.50
2018-12-15T01:07:40.745Z,2.40
2018-12-15T01:10:14.831Z,2.50
2018-12-15T01:12:46.637Z,2.50
2018-12-15T01:15:19.872Z,2.50
2018-12-15T01:17:50.220Z,2.40
2018-12-15T01:20:19.891Z,2.40
2018-12-15T01:22:49.877Z,2.30
2018-12-15T01:25:19.847Z,2.40
2018-12-15T01:27:49.820Z,2.50
2018-12-15T01:30:23.366Z,2.60
2018-12-15T01:32:53.429Z,2.60
2018-12-15T01:35:23.643Z,2.60
2018-12-15T01:37:56.938Z,2.60
2018-12-15T01:40:26.641Z,2.60
2018-12-15T01:42:56.841Z,2.60
2018-12-15T01:45:27.107Z,2.40
2018-12-15T01:47:56.630Z,2.20
2018-12-15T01:50:27.506Z,2.10
2018-12-15T01:52:57.080Z,2.10
2018-12-15T01:55:37.710Z,2.00
2018-12-15T01:58:16.753Z,2.10
2018-12-15T02:00:47.082Z,2.20
2018-12-15T02:03:16.679Z,2.20
2018-12-15T02:05:47.986Z,2.20
2018-12-15T02:08:31.882Z,2.30
2018-12-15T02:11:14.344Z,2.30
2018-12-15T02:13:44.427Z,2.30
2018-12-15T02:16:15.990Z,2.40
2018-12-15T02:18:45.552Z,2.50
2018-12-15T02:21:15.857Z,2.50
2018-12-15T02:23:46.193Z,2.50
2018-12-15T02:26:16.357Z,2.50
2018-12-15T02:28:46.782Z,2.50
2018-12-15T02:31:26.337Z,2.50
2018-12-15T02:33:56.232Z,2.50
2018-12-15T02:36:27.128Z,2.30
2018-12-15T02:38:58.176Z,2.30
2018-12-15T02:41:28.325Z,2.20
2018-12-15T02:43:58.533Z,2.30
2018-12-15T02:46:34.729Z,2.20
2018-12-15T02:49:09.047Z,2.20
2018-12-15T02:51:40.503Z,2.20
2018-12-15T02:54:10.293Z,2.10
2018-12-15T02:56:39.902Z,2.10
2018-12-15T02:59:09.563Z,2.10
2018-12-15T03:01:39.323Z,2.00
2018-12-15T03:04:18.641Z,2.00
2018-12-15T03:06:49.574Z,2.00
2018-12-15T03:09:20.218Z,2.10
2018-12-15T03:11:49.867Z,2.10
2018-12-15T03:14:19.832Z,2.10
2018-12-15T03:17:06.384Z,2.10
2018-12-15T03:19:35.921Z,2.10
2018-12-15T03:22:05.553Z,2.00
2018-12-15T03:24:35.060Z,2.00
2018-12-15T03:27:04.581Z,2.00
2018-12-15T03:29:34.233Z,2.00
2018-12-15T03:32:04.119Z,2.00
2018-12-15T03:34:41.018Z,1.90
2018-12-15T03:37:11.671Z,2.00
2018-12-15T03:39:42.241Z,2.00
2018-12-15T03:42:11.929Z,2.00
2018-12-15T03:44:41.640Z,2.00
2018-12-15T03:47:12.303Z,2.00
2018-12-15T03:49:42.232Z,2.00
2018-12-15T03:52:11.995Z,2.00
2018-12-15T03:54:42.529Z,2.00
2018-12-15T03:57:12.114Z,2.00
2018-12-15T03:59:51.429Z,2.10
2018-12-15T04:02:21.118Z,2.20
2018-12-15T04:04:50.830Z,2.10
2018-12-15T04:07:20.893Z,2.10
2018-12-15T04:09:50.865Z,2.10
2018-12-15T04:12:20.984Z,2.10
2018-12-15T04:14:50.629Z,2.10
2018-12-15T04:17:20.672Z,2.10
2018-12-15T04:19:50.887Z,2.10
2018-12-15T04:22:29.839Z,2.10
2018-12-15T04:25:01.763Z,2.10
2018-12-15T04:27:31.790Z,2.00
2018-12-15T04:30:01.461Z,2.00
2018-12-15T04:32:31.523Z,2.00
2018-12-15T04:35:01.858Z,2.00
2018-12-15T04:37:33.329Z,1.90
2018-12-15T04:40:03.121Z,1.90
2018-12-15T04:42:32.799Z,1.80
2018-12-15T04:45:02.596Z,1.80
2018-12-15T04:47:32.454Z,1.80
2018-12-15T04:50:02.530Z,1.80
2018-12-15T04:52:33.176Z,1.80
2018-12-15T04:55:03.277Z,1.80
2018-12-15T04:57:32.792Z,1.80
2018-12-15T05:00:03.293Z,1.80
2018-12-15T05:02:33.072Z,1.80
2018-12-15T05:05:02.795Z,1.90
2018-12-15T05:07:32.310Z,1.80
2018-12-15T05:10:01.850Z,1.80
2018-12-15T05:12:31.510Z,1.70
2018-12-15T05:15:01.363Z,1.80
2018-12-15T05:17:30.909Z,1.80
2018-12-15T05:20:01.546Z,1.90
2018-12-15T05:22:31.153Z,1.80
2018-12-15T05:25:00.839Z,1.70
2018-12-15T05:27:30.499Z,1.70
2018-12-15T05:30:00.150Z,1.60
2018-12-15T05:32:29.851Z,1.60
2018-12-15T05:34:59.407Z,1.70
2018-12-15T05:37:29.375Z,1.80
2018-12-15T05:39:58.894Z,1.80
2018-12-15T05:42:28.341Z,1.80
2018-12-15T05:44:57.812Z,1.80
2018-12-15T05:47:27.912Z,1.90
2018-12-15T05:49:57.437Z,1.90
2018-12-15T05:52:27.341Z,1.80
2018-12-15T05:54:57.339Z,1.90
2018-12-15T05:57:26.802Z,1.90
2018-12-15T05:59:56.947Z,1.90
2018-12-15T06:02:27.111Z,2.00
2018-12-15T06:04:57.156Z,1.90
2018-12-15T06:07:26.989Z,1.90
2018-12-15T06:09:57.158Z,1.90
2018-12-15T06:12:26.913Z,1.90
2018-12-15T06:14:56.433Z,1.90
2018-12-15T06:17:25.961Z,1.90
2018-12-15T06:19:55.684Z,1.90
2018-12-15T06:22:25.270Z,1.90
2018-12-15T06:24:54.887Z,1.90
2018-12-15T06:27:24.692Z,1.80
2018-12-15T06:29:54.600Z,1.80
2018-12-15T06:32:24.386Z,1.80
2018-12-15T06:34:54.048Z,1.70
2018-12-15T06:37:23.543Z,1.80
2018-12-15T06:39:53.574Z,1.80
2018-12-15T06:42:22.973Z,1.90
2018-12-15T06:44:53.625Z,1.90
2018-12-15T06:47:23.122Z,1.90
2018-12-15T06:49:53.317Z,2.00
2018-12-15T06:52:22.854Z,2.00
2018-12-15T06:54:52.737Z,2.00
2018-12-15T06:57:22.240Z,2.00
2018-12-15T06:59:51.779Z,2.00
2018-12-15T07:02:22.294Z,2.00
2018-12-15T07:04:52.713Z,2.00
2018-12-15T07:07:22.624Z,2.00
2018-12-15T07:09:52.535Z,2.10
2018-12-15T07:12:22.352Z,2.10
2018-12-15T07:14:51.867Z,2.10
2018-12-15T07:17:21.524Z,2.10
2018-12-15T07:19:51.681Z,2.00
2018-12-15T07:22:21.719Z,2.10
2018-12-15T07:24:51.389Z,2.00
2018-12-15T07:27:20.953Z,2.10
2018-12-15T07:29:50.450Z,2.10
2018-12-15T07:32:20.033Z,2.20
2018-12-15T07:34:50.079Z,2.20
2018-12-15T07:37:20.528Z,2.20
2018-12-15T07:39:50.237Z,2.10
2018-12-15T07:42:19.936Z,2.10
2018-12-15T07:44:49.613Z,2.00
2018-12-15T07:47:21.241Z,1.80
2018-12-15T07:49:51.198Z,2.00
2018-12-15T07:52:20.715Z,2.00
2018-12-15T07:54:50.495Z,2.00
2018-12-15T07:57:20.421Z,2.00
2018-12-15T07:59:51.444Z,2.00
2018-12-15T08:02:21.700Z,1.90
2018-12-15T08:04:51.263Z,1.90
2018-12-15T08:07:22.279Z,1.90
2018-12-15T08:09:52.574Z,1.90
2018-12-15T08:12:27.408Z,1.90
2018-12-15T08:14:57.325Z,2.00
2018-12-15T08:17:27.246Z,2.00
2018-12-15T08:19:57.723Z,2.10
2018-12-15T08:22:28.339Z,2.20
2018-12-15T08:25:01.251Z,2.20
2018-12-15T08:27:30.773Z,2.20
2018-12-15T08:30:01.002Z,2.10
2018-12-15T08:32:30.843Z,2.10
2018-12-15T08:35:01.344Z,2.10
2018-12-15T08:37:31.473Z,2.00
2018-12-15T08:40:01.265Z,2.10
2018-12-15T08:42:31.459Z,2.20
2018-12-15T08:45:01.267Z,2.10
2018-12-15T08:47:31.570Z,2.10
2018-12-15T08:50:01.166Z,2.10
2018-12-15T08:52:31.426Z,2.10
2018-12-15T08:55:01.145Z,2.20
2018-12-15T08:57:31.350Z,2.20
2018-12-15T09:00:00.922Z,2.20
2018-12-15T09:02:30.641Z,2.20
2018-12-15T09:05:00.498Z,2.30
2018-12-15T09:07:30.218Z,2.20
2018-12-15T09:10:00.596Z,2.30
2018-12-15T09:12:30.749Z,2.30
2018-12-15T09:15:01.789Z,2.20
2018-12-15T09:17:33.013Z,2.20
2018-12-15T09:20:02.876Z,2.10
2018-12-15T09:22:32.484Z,2.20
2018-12-15T09:25:03.612Z,2.20
2018-12-15T09:27:34.110Z,2.20
2018-12-15T09:30:06.468Z,2.30
2018-12-15T09:32:37.137Z,2.30
2018-12-15T09:35:06.930Z,2.30
2018-12-15T09:37:37.714Z,2.20
2018-12-15T09:40:08.560Z,2.30
2018-12-15T09:42:38.799Z,2.30
2018-12-15T09:45:08.494Z,2.40
2018-12-15T09:47:39.037Z,2.20
2018-12-15T09:50:09.156Z,2.30
2018-12-15T09:52:39.889Z,2.30
2018-12-15T09:55:10.378Z,2.30
2018-12-15T09:57:42.247Z,2.30
2018-12-15T10:00:13.099Z,2.40
2018-12-15T10:02:44.508Z,2.40
2018-12-15T10:05:14.499Z,2.40
2018-12-15T10:07:44.391Z,2.50
2018-12-15T10:10:17.377Z,2.60
2018-12-15T10:12:49.301Z,2.50
2018-12-15T10:15:19.173Z,2.40
2018-12-15T10:17:49.134Z,2.50
2018-12-15T10:20:19.421Z,2.60
2018-12-15T10:22:50.155Z,2.60
2018-12-15T10:25:21.381Z,2.60
2018-12-15T10:27:52.728Z,2.60
2018-12-15T10:30:27.237Z,2.60
2018-12-15T10:32:56.962Z,2.60
2018-12-15T10:35:36.393Z,2.60
2018-12-15T10:38:22.374Z,2.60
2018-12-15T10:40:52.919Z,2.50
2018-12-15T10:43:22.804Z,2.20
2018-12-15T10:45:54.377Z,2.30
2018-12-15T10:48:25.407Z,2.30
2018-12-15T10:51:01.018Z,2.30
2018-12-15T10:53:31.436Z,2.40
2018-12-15T10:56:06.166Z,2.30
2018-12-15T10:58:36.629Z,2.40
2018-12-15T11:01:11.292Z,2.40
2018-12-15T11:03:41.347Z,2.40
2018-12-15T11:06:14.007Z,2.40
2018-12-15T11:08:44.576Z,2.40
2018-12-15T11:11:15.621Z,2.40
2018-12-15T11:13:46.166Z,2.30
2018-12-15T11:16:15.910Z,2.30
2018-12-15T11:18:46.253Z,2.30
2018-12-15T11:21:18.449Z,2.20
2018-12-15T11:23:48.530Z,2.30
2018-12-15T11:26:18.709Z,2.30
2018-12-15T11:28:52.212Z,2.40
2018-12-15T11:31:27.766Z,2.50
2018-12-15T11:33:57.691Z,2.50
2018-12-15T11:36:27.794Z,2.40
2018-12-15T11:38:57.335Z,2.30
2018-12-15T11:41:27.100Z,2.30
2018-12-15T11:43:58.405Z,2.30
2018-12-15T11:46:29.949Z,2.50
2018-12-15T11:49:01.400Z,2.50
2018-12-15T11:51:31.171Z,2.50
2018-12-15T11:54:03.734Z,2.50
2018-12-15T11:56:34.819Z,2.50
2018-12-15T11:59:05.091Z,2.50
2018-12-15T12:01:36.016Z,2.60
2018-12-15T12:04:07.509Z,2.60
2018-12-15T12:06:37.962Z,2.60
2018-12-15T12:09:08.672Z,2.70
2018-12-15T12:11:38.436Z,2.60
2018-12-15T12:14:09.817Z,2.60
2018-12-15T12:16:41.723Z,2.50
2018-12-15T12:19:11.885Z,2.50
2018-12-15T12:21:46.871Z,2.70
2018-12-15T12:24:16.853Z,2.70
2018-12-15T12:26:49.366Z,2.80
2018-12-15T12:29:20.564Z,2.80
2018-12-15T12:34:40.541Z,2.40
2018-12-15T12:37:15.314Z,2.50
2018-12-15T12:39:51.822Z,2.40
2018-12-15T12:42:22.424Z,2.60
2018-12-15T12:44:53.153Z,2.50
2018-12-15T12:47:22.821Z,2.50
2018-12-15T12:49:56.807Z,2.50
2018-12-15T12:52:28.666Z,2.70
2018-12-15T12:55:02.855Z,2.80
2018-12-15T12:57:34.671Z,2.80
2018-12-15T13:00:05.522Z,2.80
2018-12-15T13:02:35.780Z,2.80
2018-12-15T13:05:06.734Z,2.80
2018-12-15T13:07:37.700Z,2.90
2018-12-15T13:10:10.566Z,3.00
2018-12-15T13:12:40.709Z,3.20
2018-12-15T13:15:13.532Z,3.10
2018-12-15T13:17:43.857Z,3.00
2018-12-15T13:20:14.000Z,2.90
2018-12-15T13:22:45.129Z,2.90
2018-12-15T13:25:16.637Z,2.90
2018-12-15T13:27:49.602Z,3.00
2018-12-15T13:30:26.617Z,3.00
2018-12-15T13:33:04.825Z,2.90
2018-12-15T13:35:39.615Z,2.80
2018-12-15T13:38:15.411Z,2.90
2018-12-15T13:40:50.055Z,3.00
2018-12-15T13:47:35.325Z,3.00
2018-12-15T13:50:10.085Z,3.10
2018-12-15T13:52:38.268Z,3.00
2018-12-15T13:55:08.685Z,3.00
2018-12-15T13:57:40.355Z,2.80
2018-12-15T14:00:25.897Z,2.70
2018-12-15T14:02:57.005Z,2.70
2018-12-15T14:05:27.516Z,2.80
2018-12-15T14:07:59.293Z,2.80
2018-12-15T14:10:34.153Z,2.80
2018-12-15T14:13:14.476Z,2.70
2018-12-15T14:15:56.580Z,2.70
2018-12-15T14:18:30.945Z,2.60
2018-12-15T14:21:07.347Z,2.50
2018-12-15T14:23:40.507Z,2.60
2018-12-15T14:26:42.436Z,2.60
2018-12-15T14:29:17.599Z,2.60
2018-12-15T14:31:54.223Z,2.60
2018-12-15T14:34:37.313Z,2.60
2018-12-15T14:37:21.791Z,2.60
2018-12-15T14:39:58.423Z,2.50
2018-12-15T14:42:34.230Z,2.50
2018-12-15T14:45:12.565Z,2.50
2018-12-15T14:47:43.799Z,2.50
2018-12-15T14:50:34.330Z,2.50
2018-12-15T14:53:11.240Z,2.50
2018-12-15T14:55:50.018Z,2.40
2018-12-15T14:58:38.850Z,2.50
2018-12-15T15:01:29.104Z,2.50
2018-12-15T15:04:02.703Z,2.40
2018-12-15T15:06:37.828Z,2.40
2018-12-15T15:09:12.493Z,2.40
2018-12-15T15:12:06.213Z,2.40
2018-12-15T15:14:42.310Z,2.40
2018-12-15T15:17:23.516Z,2.30
2018-12-15T15:20:05.936Z,2.20
2018-12-15T15:22:52.917Z,2.10
2018-12-15T15:25:24.885Z,2.00
2018-12-15T15:27:58.466Z,2.10
2018-12-15T15:30:35.609Z,2.10
2018-12-15T15:33:23.496Z,2.20
2018-12-15T15:35:54.309Z,2.10
2018-12-15T15:38:35.444Z,2.10
2018-12-15T15:41:06.120Z,2.10
2018-12-15T15:43:38.760Z,2.10
2018-12-15T15:46:34.767Z,2.10
2018-12-15T15:49:20.010Z,2.00
2018-12-15T15:51:55.291Z,2.00
2018-12-15T15:54:39.297Z,2.00
2018-12-15T15:57:10.848Z,2.00
2018-12-15T15:59:44.167Z,2.00
2018-12-15T16:02:17.983Z,2.00
2018-12-15T16:04:51.682Z,2.10
2018-12-15T16:07:26.614Z,2.10
2018-12-15T16:10:06.099Z,2.20
2018-12-15T16:12:58.646Z,2.20
2018-12-15T16:15:39.363Z,2.30
2018-12-15T16:18:17.921Z,2.20
2018-12-15T16:21:03.579Z,2.10
2018-12-15T16:23:40.841Z,2.20
2018-12-15T16:26:12.573Z,2.20
2018-12-15T16:29:05.838Z,2.20
2018-12-15T16:31:41.420Z,2.30
2018-12-15T16:34:12.650Z,2.30
2018-12-15T16:36:44.191Z,2.30
2018-12-15T16:39:16.568Z,2.30
2018-12-15T16:41:51.590Z,2.40
2018-12-15T16:44:23.441Z,2.40
2018-12-15T16:46:54.159Z,2.30
2018-12-15T16:49:25.466Z,2.40
2018-12-15T16:52:05.629Z,2.30
2018-12-15T16:54:38.958Z,2.40
2018-12-15T16:57:22.117Z,2.30
2018-12-15T16:59:55.264Z,2.20
2018-12-15T17:05:38.387Z,2.10
2018-12-15T17:08:10.399Z,2.10
2018-12-15T17:10:51.179Z,2.00
2018-12-15T17:13:28.583Z,2.00
2018-12-15T17:16:08.373Z,1.90
2018-12-15T17:18:51.467Z,1.90
2018-12-15T17:21:23.136Z,1.90
2018-12-15T17:23:56.993Z,2.00
2018-12-15T17:26:31.031Z,1.90
2018-12-15T17:29:03.636Z,1.90
2018-12-15T17:31:35.056Z,1.90
2018-12-15T17:34:07.046Z,1.90
2018-12-15T17:36:50.100Z,1.80
2018-12-15T17:39:20.572Z,1.80
2018-12-15T17:45:43.952Z,1.80
2018-12-15T17:48:16.109Z,1.70
2018-12-15T17:50:46.767Z,1.70
2018-12-15T17:53:18.336Z,1.80
2018-12-15T17:55:51.894Z,1.70
2018-12-15T17:58:26.961Z,1.70
2018-12-15T18:00:58.882Z,1.60
2018-12-15T18:03:33.566Z,1.60
2018-12-15T18:06:11.372Z,1.60
2018-12-15T18:08:45.304Z,1.60
2018-12-15T18:11:29.461Z,1.50
2018-12-15T18:14:02.666Z,1.60
2018-12-15T18:17:00.105Z,1.50
2018-12-15T18:19:35.239Z,1.50
2018-12-15T18:22:15.781Z,1.50
2018-12-15T18:25:00.260Z,1.60
2018-12-15T18:27:38.881Z,1.60
2018-12-15T18:30:27.463Z,1.50
2018-12-15T18:33:03.433Z,1.50
2018-12-15T18:35:45.461Z,1.50
2018-12-15T18:38:26.530Z,1.50
2018-12-15T18:41:05.565Z,1.50
2018-12-15T18:43:36.965Z,1.50
2018-12-15T18:46:15.431Z,1.50
2018-12-15T18:49:06.932Z,1.50
2018-12-15T18:51:55.886Z,1.50
2018-12-15T18:54:28.433Z,1.50
2018-12-15T18:57:03.897Z,1.50
2018-12-15T18:59:36.388Z,1.50
2018-12-15T19:02:07.378Z,1.50
2018-12-15T19:04:47.489Z,1.40
2018-12-15T19:07:23.959Z,1.40
2018-12-15T19:09:56.881Z,1.40
2018-12-15T19:12:31.253Z,1.40
2018-12-15T19:15:06.488Z,1.40
2018-12-15T19:17:43.912Z,1.40
2018-12-15T19:20:25.708Z,1.40
2018-12-15T19:23:12.970Z,1.40
2018-12-15T19:25:56.509Z,1.40
2018-12-15T19:28:28.978Z,1.40
2018-12-15T19:31:03.998Z,1.40
2018-12-15T19:33:43.684Z,1.40
2018-12-15T19:36:24.271Z,1.50
2018-12-15T19:38:55.333Z,1.40
2018-12-15T19:41:25.749Z,1.40
2018-12-15T19:44:09.203Z,1.50
2018-12-15T19:47:23.031Z,1.40
2018-12-15T19:50:28.853Z,1.40
2018-12-15T19:53:03.568Z,1.40
2018-12-15T19:55:38.632Z,1.40
2018-12-15T19:58:09.480Z,1.30
2018-12-15T20:00:41.336Z,1.30
2018-12-15T20:03:18.003Z,1.40
2018-12-15T20:08:40.597Z,1.30
2018-12-15T20:11:35.059Z,1.30
2018-12-15T20:14:15.102Z,1.30
2018-12-15T20:17:02.582Z,1.30
2018-12-15T20:19:42.245Z,1.30
2018-12-15T20:22:20.830Z,1.30
2018-12-15T20:25:01.341Z,1.20
2018-12-15T20:27:40.488Z,1.20
2018-12-15T20:30:16.849Z,1.30
2018-12-15T20:32:58.973Z,1.30
2018-12-15T20:35:38.933Z,1.20
2018-12-15T20:38:10.120Z,1.30
2018-12-15T20:40:50.568Z,1.40
2018-12-15T20:43:24.766Z,1.30
2018-12-15T20:46:05.123Z,1.40
2018-12-15T20:48:42.812Z,1.30
2018-12-15T20:51:17.258Z,1.30
2018-12-15T20:53:47.898Z,1.30
2018-12-15T20:56:26.443Z,1.30
2018-12-15T20:59:00.971Z,1.20
2018-12-15T21:01:33.206Z,1.20
2018-12-15T21:04:17.061Z,1.30
2018-12-15T21:06:52.063Z,1.30
2018-12-15T21:09:38.294Z,1.40
2018-12-15T21:12:09.474Z,1.30
2018-12-15T21:14:40.317Z,1.20
2018-12-15T21:17:20.048Z,1.30
2018-12-15T21:20:03.315Z,1.40
2018-12-15T21:22:45.662Z,1.30
2018-12-15T21:25:21.895Z,1.40
2018-12-15T21:28:03.170Z,1.40
2018-12-15T21:30:54.693Z,1.40
2018-12-15T21:33:37.890Z,1.40
2018-12-15T21:36:24.014Z,1.50
2018-12-15T21:39:09.443Z,1.60
2018-12-15T21:41:52.700Z,1.50
2018-12-15T21:44:36.642Z,1.60
2018-12-15T21:47:12.133Z,1.50
2018-12-15T21:49:56.489Z,1.50
2018-12-15T21:52:39.240Z,1.50
2018-12-15T21:58:08.226Z,1.40
2018-12-15T22:03:30.412Z,1.30
2018-12-15T22:09:11.918Z,1.40
2018-12-15T22:12:03.425Z,1.40
2018-12-15T22:15:03.621Z,1.30
2018-12-15T22:17:46.825Z,1.30
2018-12-15T22:20:33.229Z,1.20
2018-12-15T22:23:04.542Z,1.10
2018-12-15T22:25:36.521Z,1.10
2018-12-15T22:28:06.699Z,1.10
2018-12-15T22:30:48.285Z,1.10
2018-12-15T22:33:25.980Z,1.10
2018-12-15T22:38:56.581Z,1.10
2018-12-15T22:41:33.262Z,1.10
2018-12-15T22:44:29.503Z,1.10
2018-12-15T22:47:28.744Z,1.10
2018-12-15T22:50:14.315Z,1.00
2018-12-15T22:52:58.752Z,1.10
2018-12-15T22:55:30.714Z,1.20
2018-12-15T22:58:03.983Z,1.30
2018-12-15T23:00:50.876Z,1.30
2018-12-15T23:03:33.513Z,1.20
2018-12-15T23:06:08.340Z,1.10
2018-12-15T23:08:47.223Z,1.10
2018-12-15T23:11:22.550Z,1.10
2018-12-15T23:14:00.638Z,1.10
2018-12-15T23:16:49.444Z,1.10
2018-12-15T23:19:34.838Z,1.10
2018-12-15T23:22:26.191Z,1.10
2018-12-15T23:25:15.189Z,1.10
2018-12-15T23:27:58.264Z,1.20
2018-12-15T23:30:31.730Z,1.30
2018-12-15T23:33:14.744Z,1.20
2018-12-15T23:35:50.932Z,1.30
2018-12-15T23:38:21.506Z,1.20
2018-12-15T23:40:53.916Z,1.20
2018-12-15T23:43:52.813Z,1.20
2018-12-15T23:46:23.610Z,1.30
2018-12-15T23:49:01.531Z,1.30
2018-12-15T23:51:34.454Z,1.30
2018-12-15T23:54:06.364Z,1.20
2018-12-15T23:56:45.235Z,1.30
2018-12-15T23:59:20.796Z,1.30
